Time;durP1;ratioP1;P1;durP2;ratioP2;P2;SDS_P1;SDS_P2;PMS_P1;PMS_P2;Temp;Humidity;BMP_temperature;BMP_pressure;BME280_temperature;BME280_humidity;BME280_pressure;Samples;Min_cycle;Max_cycle;Signal;HPM_P1;HPM_P2
2023/10/09 00:01:27;;;;;;;21.27;7.30;;;15.60;99.90;;;;;;5054337;28;20033;-49
2023/10/09 00:03:54;;;;;;;17.65;7.03;;;15.50;99.90;;;;;;5054703;28;20037;-47
2023/10/09 00:06:30;;;;;;;11.52;5.78;;;15.50;99.90;;;;;;5053392;28;20118;-49
2023/10/09 00:08:58;;;;;;;12.52;6.07;;;15.50;99.90;;;;;;5053854;28;20037;-50
2023/10/09 00:11:29;;;;;;;14.27;6.25;;;15.50;99.90;;;;;;5058594;28;20115;-47
2023/10/09 00:13:58;;;;;;;15.70;6.38;;;15.50;99.90;;;;;;5041796;28;20054;-47
2023/10/09 00:16:34;;;;;;;12.90;6.38;;;15.50;99.90;;;;;;5041514;28;20037;-47
2023/10/09 00:19:16;;;;;;;15.57;6.63;;;15.50;99.90;;;;;;5058471;28;20041;-47
2023/10/09 00:21:46;;;;;;;13.88;6.50;;;15.50;99.90;;;;;;5057369;28;20033;-47
2023/10/09 00:24:24;;;;;;;14.45;6.32;;;15.40;99.90;;;;;;5058495;28;20044;-52
2023/10/09 00:26:51;;;;;;;15.88;7.05;;;15.40;99.90;;;;;;5058534;28;20067;-54
2023/10/09 00:29:23;;;;;;;14.85;6.32;;;15.40;99.90;;;;;;5056953;28;20045;-50
2023/10/09 00:32:13;;;;;;;12.75;6.07;;;15.40;99.90;;;;;;5057813;28;20040;-50
2023/10/09 00:34:41;;;;;;;15.57;6.70;;;15.40;99.90;;;;;;5057156;28;20037;-49
2023/10/09 00:37:16;;;;;;;13.77;6.68;;;15.40;99.90;;;;;;5058125;28;20056;-50
2023/10/09 00:39:45;;;;;;;14.50;6.75;;;15.40;99.90;;;;;;5056963;28;20332;-51
2023/10/09 00:42:21;;;;;;;13.70;5.75;;;15.40;99.90;;;;;;5057040;28;20174;-48
2023/10/09 00:44:49;;;;;;;14.98;7.00;;;15.30;99.90;;;;;;5057806;28;20044;-48
2023/10/09 00:47:22;;;;;;;14.57;5.78;;;15.30;99.90;;;;;;5058035;28;20467;-50
2023/10/09 00:49:48;;;;;;;14.07;6.00;;;15.30;99.90;;;;;;5057916;28;20029;-50
2023/10/09 00:52:17;;;;;;;19.08;6.53;;;15.30;99.90;;;;;;5057794;28;20421;-51
2023/10/09 00:54:50;;;;;;;12.02;5.70;;;15.30;99.90;;;;;;5057918;28;20112;-49
2023/10/09 00:57:18;;;;;;;14.35;6.18;;;15.30;99.90;;;;;;5040947;28;20044;-49
2023/10/09 00:59:43;;;;;;;15.38;6.30;;;15.30;99.90;;;;;;5040366;28;20047;-50
2023/10/09 01:02:09;;;;;;;14.30;6.25;;;15.30;99.90;;;;;;5056655;28;20493;-48
2023/10/09 01:04:41;;;;;;;13.80;6.38;;;15.20;99.90;;;;;;5056689;28;20033;-47
2023/10/09 01:07:16;;;;;;;13.95;6.43;;;15.30;99.90;;;;;;5057307;28;20052;-49
2023/10/09 01:09:44;;;;;;;17.27;6.18;;;15.20;99.90;;;;;;5057610;28;20048;-50
2023/10/09 01:12:16;;;;;;;16.33;6.80;;;15.30;99.90;;;;;;5057548;28;20071;-50
2023/10/09 01:14:43;;;;;;;14.32;7.38;;;15.30;99.90;;;;;;5057223;28;20102;-49
2023/10/09 01:17:09;;;;;;;15.63;6.10;;;15.30;99.90;;;;;;5057361;28;20029;-48
2023/10/09 01:19:35;;;;;;;12.23;6.55;;;15.30;99.90;;;;;;5057449;28;20071;-48
2023/10/09 01:22:13;;;;;;;10.63;5.38;;;15.30;99.90;;;;;;5056011;28;20579;-48
2023/10/09 01:24:39;;;;;;;10.88;5.18;;;15.30;99.90;;;;;;5057047;28;20033;-50
2023/10/09 01:27:12;;;;;;;13.57;5.60;;;15.30;99.90;;;;;;5056109;28;20036;-48
2023/10/09 01:29:39;;;;;;;11.10;5.07;;;15.30;99.90;;;;;;5057210;28;20116;-50
2023/10/09 01:32:06;;;;;;;11.38;5.05;;;15.30;99.90;;;;;;5057235;28;20029;-50
2023/10/09 01:37:10;;;;;;;9.95;5.03;;;15.30;99.90;;;;;;5057090;28;20041;-50
2023/10/09 01:39:42;;;;;;;8.38;4.55;;;15.30;99.90;;;;;;5057147;28;20379;-51
2023/10/09 01:42:09;;;;;;;8.18;4.75;;;15.30;99.90;;;;;;5055956;28;20037;-50
2023/10/09 01:44:35;;;;;;;12.25;5.13;;;15.30;99.90;;;;;;5056712;28;20029;-51
2023/10/09 01:47:07;;;;;;;11.75;5.28;;;15.30;99.90;;;;;;5056429;28;20442;-51
2023/10/09 01:49:41;;;;;;;9.20;4.72;;;15.30;99.90;;;;;;5056420;28;20124;-51
2023/10/09 01:52:12;;;;;;;8.55;4.78;;;15.30;99.90;;;;;;5056821;28;20033;-51
2023/10/09 01:54:40;;;;;;;11.25;5.03;;;15.30;99.90;;;;;;5055578;28;20020;-51
2023/10/09 01:57:09;;;;;;;8.65;4.40;;;15.30;99.90;;;;;;5056810;28;20025;-50
2023/10/09 01:59:38;;;;;;;;;;;15.30;99.90;;;;;;5057067;28;20032;-50
2023/10/09 02:02:25;;;;;;;9.10;4.20;;;15.20;99.90;;;;;;5056584;28;19916;-51
2023/10/09 02:05:04;;;;;;;9.10;4.20;;;15.30;99.90;;;;;;5055673;28;20040;-51
2023/10/09 02:07:40;;;;;;;10.77;5.05;;;15.20;99.90;;;;;;5055582;28;20073;-51
2023/10/09 02:12:57;;;;;;;10.98;4.95;;;15.20;99.90;;;;;;5055535;28;20135;-51
2023/10/09 02:18:18;;;;;;;10.20;4.18;;;15.20;99.90;;;;;;5064406;28;20060;-51
2023/10/09 02:21:12;;;;;;;9.10;4.93;;;15.20;99.90;;;;;;5055034;28;20025;-49
2023/10/09 02:23:46;;;;;;;10.23;4.72;;;15.20;99.90;;;;;;5056359;28;20029;-47
2023/10/09 02:26:19;;;;;;;8.82;4.35;;;15.10;99.90;;;;;;5055212;28;20043;-50
2023/10/09 02:28:52;;;;;;;6.88;3.70;;;15.10;99.90;;;;;;5055756;28;20029;-50
2023/10/09 02:31:22;;;;;;;10.23;4.40;;;15.20;99.90;;;;;;5055941;28;20123;-49
2023/10/09 02:33:50;;;;;;;8.07;4.45;;;15.20;99.90;;;;;;5055033;28;20486;-47
2023/10/09 02:36:16;;;;;;;7.60;4.13;;;15.10;99.90;;;;;;5055505;28;20029;-47
2023/10/09 02:38:43;;;;;;;10.82;4.57;;;15.10;99.90;;;;;;5054696;28;20431;-50
2023/10/09 02:43:46;;;;;;;7.22;3.92;;;15.10;99.90;;;;;;5055886;28;20048;-49
2023/10/09 02:46:18;;;;;;;8.57;4.47;;;15.10;99.90;;;;;;5054776;28;20064;-50
2023/10/09 02:48:53;;;;;;;11.48;4.30;;;15.10;99.90;;;;;;5055570;28;20090;-49
2023/10/09 02:53:56;;;;;;;11.65;4.57;;;15.10;99.90;;;;;;5055716;28;20037;-50
2023/10/09 02:56:24;;;;;;;;;;;15.10;99.90;;;;;;5055927;28;20035;-50
2023/10/09 02:59:05;;;;;;;10.98;4.68;;;15.10;99.90;;;;;;5055649;28;19943;-48
2023/10/09 03:01:31;;;;;;;12.00;4.72;;;15.20;99.90;;;;;;5055528;28;20087;-49
2023/10/09 03:04:02;;;;;;;10.70;4.25;;;15.20;99.90;;;;;;5055363;28;20036;-49
2023/10/09 03:06:30;;;;;;;11.68;4.13;;;15.20;99.90;;;;;;5054985;28;20057;-50
2023/10/09 03:09:00;;;;;;;8.63;4.45;;;15.10;99.90;;;;;;5055253;28;20076;-49
2023/10/09 03:11:26;;;;;;;8.07;4.18;;;15.20;99.90;;;;;;5055224;28;20132;-50
2023/10/09 03:13:55;;;;;;;12.80;4.43;;;15.20;99.90;;;;;;5054080;28;20075;-49
2023/10/09 03:16:21;;;;;;;7.67;4.43;;;15.10;99.90;;;;;;5054127;28;20025;-50
2023/10/09 03:18:52;;;;;;;9.40;4.63;;;15.10;99.90;;;;;;5054184;28;20282;-50
2023/10/09 03:21:18;;;;;;;9.27;5.05;;;15.10;99.90;;;;;;5055111;28;20104;-49
2023/10/09 03:23:50;;;;;;;11.05;5.13;;;15.10;99.90;;;;;;5054166;28;20365;-50
2023/10/09 03:26:20;;;;;;;13.02;5.30;;;15.20;99.90;;;;;;5055019;28;20090;-48
2023/10/09 03:28:46;;;;;;;9.38;5.30;;;15.20;99.90;;;;;;5054788;28;20047;-50
2023/10/09 03:31:12;;;;;;;17.02;5.75;;;15.10;99.90;;;;;;5054945;28;20036;-50
2023/10/09 03:33:38;;;;;;;8.70;5.10;;;15.10;99.90;;;;;;5055042;28;20029;-50
2023/10/09 03:36:09;;;;;;;14.45;5.22;;;15.10;99.90;;;;;;5054931;28;20029;-50
2023/10/09 03:38:38;;;;;;;13.57;5.40;;;15.10;99.90;;;;;;5054893;28;20454;-50
2023/10/09 03:41:07;;;;;;;8.95;4.75;;;15.20;99.90;;;;;;5054974;28;20029;-49
2023/10/09 03:43:42;;;;;;;12.20;5.45;;;15.20;99.90;;;;;;5054331;28;20067;-50
2023/10/09 03:46:20;;;;;;;12.40;5.50;;;15.10;99.90;;;;;;5053819;28;20033;-49
2023/10/09 03:48:49;;;;;;;13.80;5.90;;;15.20;99.90;;;;;;5054533;28;20025;-47
2023/10/09 03:51:21;;;;;;;12.02;4.97;;;15.20;99.90;;;;;;5054838;28;20037;-50
2023/10/09 03:53:53;;;;;;;10.30;5.32;;;15.20;99.90;;;;;;5054949;28;20041;-50
2023/10/09 03:56:21;;;;;;;11.68;4.95;;;15.20;99.90;;;;;;5054670;28;20033;-50
2023/10/09 03:58:49;;;;;;;11.50;5.80;;;15.20;99.90;;;;;;5054519;28;20086;-49
2023/10/09 04:04:00;;;;;;;10.02;4.82;;;15.20;99.90;;;;;;5054879;28;20033;-50
2023/10/09 04:06:33;;;;;;;13.43;5.65;;;15.20;99.90;;;;;;5054286;28;20052;-50
2023/10/09 04:09:26;;;;;;;11.48;5.15;;;15.20;99.90;;;;;;5054259;28;20450;-50
2023/10/09 04:14:49;;;;;;;9.52;4.65;;;15.20;99.90;;;;;;5054593;28;20423;-50
2023/10/09 04:17:34;;;;;;;13.35;5.25;;;15.20;99.90;;;;;;5054484;28;20041;-52
2023/10/09 04:23:33;;;;;;;10.38;4.78;;;15.20;99.90;;;;;;5053800;28;20048;-52
2023/10/09 04:25:41;;;;;;;9.02;4.85;;;15.20;99.90;;;;;;5055200;28;20130;-53
2023/10/09 04:28:21;;;;;;;14.70;5.40;;;15.20;99.90;;;;;;5054529;28;20041;-50
2023/10/09 04:30:53;;;;;;;9.60;5.05;;;15.20;99.90;;;;;;5054483;28;20029;-51
2023/10/09 04:33:34;;;;;;;11.80;4.68;;;15.20;99.90;;;;;;5054770;28;20346;-51
2023/10/09 04:36:21;;;;;;;11.65;4.93;;;15.20;99.90;;;;;;5054439;28;20036;-51
2023/10/09 04:41:32;;;;;;;12.60;5.25;;;15.20;99.90;;;;;;5054356;28;20108;-50
2023/10/09 04:44:36;;;;;;;9.27;4.35;;;15.20;99.90;;;;;;5054358;28;20104;-51
2023/10/09 04:49:52;;;;;;;10.43;4.85;;;15.10;99.90;;;;;;5054399;28;20072;-50
2023/10/09 05:03:44;;;;;;;10.27;5.25;;;15.10;99.90;;;;;;5057968;28;20032;-51
2023/10/09 05:06:42;;;;;;;13.02;5.18;;;15.10;99.90;;;;;;5057277;28;20053;-50
2023/10/09 05:09:07;;;;;;;15.82;5.68;;;15.00;99.90;;;;;;5057198;28;20128;-50
2023/10/09 05:11:34;;;;;;;11.80;5.60;;;15.00;99.90;;;;;;5057570;28;20466;-50
2023/10/09 05:14:13;;;;;;;17.13;5.90;;;15.00;99.90;;;;;;5057490;28;20021;-50
2023/10/09 05:16:53;;;;;;;12.88;5.53;;;15.10;99.90;;;;;;5056608;28;20028;-50
2023/10/09 05:19:41;;;;;;;12.45;6.32;;;15.10;99.90;;;;;;5056387;28;20446;-50
2023/10/09 05:22:16;;;;;;;24.05;11.35;;;15.00;99.90;;;;;;5057420;28;20025;-50
2023/10/09 05:24:47;;;;;;;18.33;10.40;;;15.10;99.90;;;;;;5056023;28;20076;-50
2023/10/09 05:27:17;;;;;;;16.88;9.00;;;15.10;99.90;;;;;;5056916;28;20033;-50
2023/10/09 05:29:59;;;;;;;18.70;10.18;;;15.10;99.90;;;;;;5057297;28;20034;-51
2023/10/09 05:32:29;;;;;;;22.02;12.10;;;15.00;99.90;;;;;;5056920;28;20029;-51
2023/10/09 05:37:32;;;;;;;13.68;6.68;;;15.10;99.90;;;;;;5055985;28;20111;-51
2023/10/09 05:45:29;;;;;;;;;;;15.10;99.90;;;;;;5056996;28;20037;-51
2023/10/09 05:47:53;;;;;;;12.98;5.90;;;15.10;99.90;;;;;;5056926;28;20108;-51
2023/10/09 06:14:13;;;;;;;14.75;5.93;;;15.10;99.90;;;;;;5074122;28;20063;-50
2023/10/09 06:16:46;;;;;;;15.35;5.65;;;15.00;99.90;;;;;;5058747;28;20045;-50
2023/10/09 06:24:42;;;;;;;11.93;5.63;;;15.00;99.90;;;;;;5055926;28;20102;-51
2023/10/09 06:34:51;;;;;;;11.88;5.28;;;15.10;99.90;;;;;;5055887;28;20028;-51
2023/10/09 06:45:11;;;;;;;11.18;5.70;;;15.20;99.90;;;;;;5055469;28;20037;-47
2023/10/09 06:47:53;;;;;;;13.95;7.05;;;15.30;99.90;;;;;;5055927;28;20481;-47
2023/10/09 06:55:50;;;;;;;12.90;5.68;;;15.30;99.90;;;;;;5055424;28;20445;-47
2023/10/09 06:58:23;;;;;;;13.85;6.00;;;15.30;99.90;;;;;;5055177;28;20530;-48
2023/10/09 07:03:29;;;;;;;13.70;5.57;;;15.40;99.90;;;;;;5055452;28;20432;-47
2023/10/09 07:06:48;;;;;;;11.20;5.35;;;15.50;99.90;;;;;;5053693;28;20052;-48
2023/10/09 07:16:58;;;;;;;9.15;4.65;;;15.60;99.90;;;;;;5054982;28;20470;-47
2023/10/09 07:22:15;;;;;;;11.88;5.30;;;15.60;99.90;;;;;;5054088;28;20405;-47
2023/10/09 07:24:44;;;;;;;14.57;5.22;;;15.60;99.90;;;;;;5053977;28;20040;-48
2023/10/09 07:27:13;;;;;;;11.55;6.07;;;15.60;99.90;;;;;;5054744;28;20041;-49
2023/10/09 07:29:48;;;;;;;11.30;5.32;;;15.50;99.90;;;;;;5053797;28;20473;-47
2023/10/09 07:32:27;;;;;;;11.80;6.30;;;15.60;99.90;;;;;;5054618;28;20343;-47
2023/10/09 07:34:53;;;;;;;16.83;6.63;;;15.60;99.90;;;;;;5054873;28;20033;-48
2023/10/09 07:37:30;;;;;;;11.10;6.30;;;15.60;99.90;;;;;;5054764;28;20071;-48
2023/10/09 07:40:06;;;;;;;13.27;6.30;;;15.60;99.90;;;;;;5054489;28;20077;-47
2023/10/09 07:50:30;;;;;;;12.52;6.53;;;15.80;99.90;;;;;;5054080;28;20037;-48
2023/10/09 07:53:14;;;;;;;16.20;7.28;;;15.80;99.90;;;;;;5054550;28;20338;-50
2023/10/09 07:55:45;;;;;;;11.15;6.00;;;15.90;99.90;;;;;;5054441;28;20029;-51
2023/10/09 07:58:11;;;;;;;11.55;5.35;;;15.90;99.90;;;;;;5054469;28;20029;-49
2023/10/09 08:01:05;;;;;;;13.60;5.40;;;15.90;99.90;;;;;;5054256;28;20040;-50
2023/10/09 08:03:23;;;;;;;11.00;5.57;;;15.90;99.90;;;;;;5052989;28;20041;-51
2023/10/09 08:05:53;;;;;;;11.73;5.63;;;16.00;99.90;;;;;;5054076;28;20541;-50
2023/10/09 08:16:21;;;;;;;14.15;5.57;;;16.30;99.90;;;;;;5054230;28;20033;-51
2023/10/09 08:18:50;;;;;;;;;;;16.40;99.90;;;;;;5053708;28;20052;-52
2023/10/09 08:23:48;;;;;;;15.30;5.75;;;16.50;99.90;;;;;;5053172;28;20280;-52
2023/10/09 08:26:28;;;;;;;13.77;6.00;;;16.60;99.90;;;;;;5053992;28;20182;-49
2023/10/09 08:29:15;;;;;;;12.48;5.90;;;16.80;99.90;;;;;;5054085;28;20040;-47
2023/10/09 08:31:46;;;;;;;12.82;5.68;;;17.10;99.90;;;;;;5056916;28;20037;-48
2023/10/09 08:34:26;;;;;;;11.63;5.80;;;17.40;99.90;;;;;;5057828;28;20029;-48
2023/10/09 08:36:52;;;;;;;10.48;5.15;;;17.80;99.90;;;;;;5056868;28;20029;-49
2023/10/09 08:39:33;;;;;;;11.18;5.20;;;17.80;99.90;;;;;;5058008;28;20033;-50
2023/10/09 08:42:01;;;;;;;12.35;5.00;;;17.80;99.90;;;;;;5057881;28;20033;-52
2023/10/09 08:44:29;;;;;;;12.95;5.10;;;17.90;99.90;;;;;;5057444;28;20040;-51
2023/10/09 08:46:55;;;;;;;13.07;5.65;;;18.00;99.90;;;;;;5057897;28;20040;-52
2023/10/09 08:49:24;;;;;;;9.27;4.30;;;18.10;99.90;;;;;;5057217;28;20029;-51
2023/10/09 08:51:52;;;;;;;10.73;4.47;;;18.10;99.90;;;;;;5057630;28;20104;-52
2023/10/09 08:54:18;;;;;;;8.55;5.30;;;18.00;99.90;;;;;;5057760;28;20457;-51
2023/10/09 08:56:51;;;;;;;13.05;4.78;;;18.00;99.90;;;;;;5057486;28;20108;-51
2023/10/09 08:59:20;;;;;;;8.13;4.28;;;18.10;99.90;;;;;;5057588;28;20121;-52
2023/10/09 09:01:51;;;;;;;16.27;8.57;;;18.60;99.90;;;;;;5057688;28;20099;-52
2023/10/09 09:04:39;;;;;;;17.05;6.40;;;19.20;99.90;;;;;;5056254;28;20454;-53
2023/10/09 09:07:06;;;;;;;15.13;5.38;;;20.10;99.90;;;;;;5056048;28;20110;-52
2023/10/09 09:09:34;;;;;;;11.52;4.93;;;21.00;99.90;;;;;;5057278;28;20060;-51
2023/10/09 09:11:59;;;;;;;12.57;5.15;;;21.30;99.90;;;;;;5056244;28;20403;-52
2023/10/09 09:14:37;;;;;;;8.98;4.53;;;20.70;99.90;;;;;;5057160;28;20060;-52
2023/10/09 09:17:04;;;;;;;16.30;4.93;;;20.30;99.90;;;;;;5055982;28;20392;-51
2023/10/09 09:19:37;;;;;;;9.38;4.75;;;20.60;99.90;;;;;;5057250;28;20028;-50
2023/10/09 09:22:12;;;;;;;11.15;4.70;;;20.70;99.90;;;;;;5057248;28;20450;-52
2023/10/09 09:24:38;;;;;;;11.10;4.68;;;21.20;99.90;;;;;;5056912;28;20033;-53
2023/10/09 09:27:18;;;;;;;10.95;4.50;;;21.60;99.90;;;;;;5056744;28;20033;-52
2023/10/09 09:29:52;;;;;;;10.32;4.53;;;21.80;99.90;;;;;;5056976;28;20033;-52
2023/10/09 09:32:29;;;;;;;11.23;4.40;;;21.50;99.90;;;;;;5056690;28;20029;-52
2023/10/09 09:35:00;;;;;;;9.40;4.60;;;21.30;99.90;;;;;;5055851;28;20036;-52
2023/10/09 09:37:31;;;;;;;7.93;5.07;;;21.30;99.90;;;;;;5055817;28;20454;-52
2023/10/09 09:40:14;;;;;;;11.25;5.32;;;21.80;99.90;;;;;;5056899;28;20434;-52
2023/10/09 09:42:44;;;;;;;9.20;4.53;;;22.50;99.90;;;;;;5055595;28;20045;-51
2023/10/09 09:45:11;;;;;;;10.23;4.40;;;22.50;99.90;;;;;;5055538;28;20032;-51
2023/10/09 09:47:37;;;;;;;8.32;4.53;;;23.10;99.90;;;;;;5056818;28;20342;-52
2023/10/09 09:50:12;;;;;;;9.35;4.38;;;23.30;99.90;;;;;;5056447;28;20032;-51
2023/10/09 09:52:38;;;;;;;10.93;5.35;;;23.50;99.90;;;;;;5056515;28;20044;-52
2023/10/09 09:55:22;;;;;;;9.55;4.47;;;23.70;99.90;;;;;;5055089;28;20032;-54
2023/10/09 09:57:51;;;;;;;12.55;4.63;;;23.30;99.90;;;;;;5056575;28;20043;-53
2023/10/09 10:00:29;;;;;;;11.50;4.57;;;23.20;99.90;;;;;;5056501;28;20040;-54
2023/10/09 10:03:00;;;;;;;8.95;4.28;;;22.80;99.90;;;;;;5055199;28;20399;-52
2023/10/09 10:05:29;;;;;;;9.43;5.10;;;22.30;99.90;;;;;;5038691;28;20051;-52
2023/10/09 10:07:57;;;;;;;10.40;4.83;;;21.70;99.90;;;;;;5055048;28;20458;-53
2023/10/09 10:10:47;;;;;;;10.70;5.70;;;21.50;99.90;;;;;;5055834;28;20285;-52
2023/10/09 10:13:14;;;;;;;8.07;5.07;;;22.00;99.90;;;;;;5055818;28;20048;-53
2023/10/09 10:16:02;;;;;;;11.00;5.88;;;22.10;99.90;;;;;;5056164;28;20031;-53
2023/10/09 10:18:32;;;;;;;10.07;5.45;;;21.70;99.90;;;;;;5055874;28;20036;-51
2023/10/09 10:21:37;;;;;;;8.85;5.43;;;21.40;99.90;;;;;;5055877;28;20045;-53
2023/10/09 10:24:13;;;;;;;13.35;6.20;;;21.30;99.90;;;;;;5055933;28;20088;-50
2023/10/09 10:26:40;;;;;;;11.38;6.00;;;20.80;99.90;;;;;;5055403;28;20450;-50
2023/10/09 10:29:33;;;;;;;9.52;4.80;;;21.30;99.90;;;;;;5055617;28;20037;-50
2023/10/09 10:32:01;;;;;;;11.65;5.28;;;21.70;99.90;;;;;;5054560;28;20032;-51
2023/10/09 10:34:27;;;;;;;10.85;5.57;;;21.00;99.90;;;;;;5055562;28;20025;-52
2023/10/09 10:36:58;;;;;;;9.90;5.18;;;20.60;99.90;;;;;;5054453;28;20037;-52
2023/10/09 10:39:42;;;;;;;11.60;5.05;;;20.30;99.90;;;;;;5055195;28;20048;-53
2023/10/09 10:42:33;;;;;;;11.40;6.03;;;20.20;99.90;;;;;;5055323;28;20079;-51
2023/10/09 10:45:02;;;;;;;12.00;5.25;;;19.80;99.90;;;;;;5054439;28;20025;-52
2023/10/09 10:47:35;;;;;;;12.68;5.75;;;19.50;99.90;;;;;;5055391;28;20032;-52
2023/10/09 10:50:45;;;;;;;12.70;5.90;;;19.30;99.90;;;;;;5055375;28;20335;-53
2023/10/09 10:52:57;;;;;;;10.57;5.43;;;19.30;99.90;;;;;;5037750;28;20033;-52
2023/10/09 10:58:01;;;;;;;12.70;5.30;;;19.50;99.90;;;;;;5054079;28;20081;-52
2023/10/09 11:03:35;;;;;;;10.75;6.00;;;19.60;99.90;;;;;;5054984;28;20174;-51
2023/10/09 11:06:14;;;;;;;13.50;7.68;;;20.00;99.90;;;;;;5054800;28;20106;-50
2023/10/09 11:08:54;;;;;;;12.87;5.70;;;20.00;99.90;;;;;;5054995;28;20090;-50
2023/10/09 11:11:20;;;;;;;10.93;5.35;;;20.00;99.90;;;;;;5054827;28;20128;-53
2023/10/09 11:13:58;;;;;;;11.43;5.65;;;19.90;99.90;;;;;;5053733;28;20028;-54
2023/10/09 11:16:44;;;;;;;10.57;5.28;;;20.20;99.90;;;;;;5053640;28;20094;-50
2023/10/09 11:19:28;;;;;;;9.27;5.15;;;20.40;99.90;;;;;;5054565;28;20025;-49
2023/10/09 11:23:05;;;;;;;8.98;4.60;;;21.10;99.90;;;;;;5055062;28;20039;-51
2023/10/09 11:24:46;;;;;;;11.75;5.70;;;21.00;99.90;;;;;;5049367;28;20045;-51
2023/10/09 11:27:18;;;;;;;8.20;4.85;;;20.60;99.90;;;;;;5053290;28;20032;-48
2023/10/09 11:32:18;;;;;;;10.52;5.32;;;20.90;99.90;;;;;;5054887;28;20037;-49
2023/10/09 11:34:56;;;;;;;12.05;5.32;;;20.60;99.90;;;;;;5054222;28;20053;-48
2023/10/09 11:40:00;;;;;;;9.93;5.95;;;20.60;99.90;;;;;;5053047;28;20044;-47
2023/10/09 11:42:48;;;;;;;9.00;5.20;;;20.70;99.90;;;;;;5053974;28;20036;-47
2023/10/09 11:45:24;;;;;;;9.32;5.00;;;20.60;99.90;;;;;;5053998;28;20061;-47
2023/10/09 11:47:59;;;;;;;11.43;5.93;;;20.50;99.90;;;;;;5053330;28;20530;-51
2023/10/09 11:50:48;;;;;;;12.80;5.68;;;20.50;99.90;;;;;;5053956;28;20033;-51
2023/10/09 11:55:49;;;;;;;12.13;6.30;;;20.30;99.90;;;;;;5054319;28;20128;-51
2023/10/09 11:58:24;;;;;;;9.25;5.10;;;20.50;99.90;;;;;;5053561;28;20033;-52
2023/10/09 12:01:03;;;;;;;8.85;5.47;;;20.90;99.90;;;;;;5054109;28;20054;-51
2023/10/09 12:03:29;;;;;;;10.20;4.70;;;21.00;99.90;;;;;;5054656;28;20035;-51
2023/10/09 12:06:04;;;;;;;9.10;3.75;;;21.60;99.90;;;;;;5055577;28;20060;-51
2023/10/09 12:08:30;;;;;;;9.63;4.78;;;21.70;99.90;;;;;;5058106;28;20037;-51
2023/10/09 12:10:56;;;;;;;8.32;5.20;;;21.80;99.90;;;;;;5057525;28;20040;-51
2023/10/09 12:13:25;;;;;;;10.48;4.78;;;21.40;99.90;;;;;;5058329;28;20025;-52
2023/10/09 12:15:54;;;;;;;11.25;5.47;;;20.70;99.90;;;;;;5058219;28;20029;-50
2023/10/09 12:18:20;;;;;;;9.82;5.32;;;20.60;99.90;;;;;;5058339;28;20376;-52
2023/10/09 12:20:54;;;;;;;8.60;5.13;;;20.40;99.90;;;;;;5058330;28;20072;-51
2023/10/09 12:23:22;;;;;;;10.07;5.20;;;20.10;99.90;;;;;;5058102;28;20112;-51
2023/10/09 12:25:51;;;;;;;8.63;4.35;;;20.40;99.90;;;;;;5057980;28;20032;-50
2023/10/09 12:28:20;;;;;;;10.37;5.40;;;20.50;99.90;;;;;;5056733;28;20056;-51
2023/10/09 12:30:50;;;;;;;9.43;4.57;;;20.30;99.90;;;;;;5056505;28;20171;-50
2023/10/09 12:33:16;;;;;;;10.35;4.90;;;20.40;99.90;;;;;;5058109;28;20036;-51
2023/10/09 12:35:45;;;;;;;12.73;5.43;;;20.30;99.90;;;;;;5057971;28;20132;-52
2023/10/09 12:38:12;;;;;;;13.43;5.45;;;20.40;99.90;;;;;;5057870;28;20029;-51
2023/10/09 12:40:40;;;;;;;10.25;5.70;;;20.80;99.90;;;;;;5057476;28;20037;-52
2023/10/09 12:43:15;;;;;;;13.43;6.22;;;20.80;99.90;;;;;;5056363;28;20033;-52
2023/10/09 12:45:41;;;;;;;9.52;5.40;;;20.60;99.90;;;;;;5057713;28;20116;-52
2023/10/09 12:48:09;;;;;;;13.85;6.65;;;20.60;99.90;;;;;;5057704;28;20429;-52
2023/10/09 12:50:41;;;;;;;10.48;6.43;;;20.60;99.90;;;;;;5057295;28;20040;-52
2023/10/09 12:53:07;;;;;;;16.33;6.80;;;20.30;99.90;;;;;;5057586;28;20025;-51
2023/10/09 12:55:42;;;;;;;13.73;7.10;;;20.40;99.90;;;;;;5057306;28;20060;-52
2023/10/09 12:58:09;;;;;;;13.98;6.55;;;20.40;99.90;;;;;;5056883;28;20470;-51
2023/10/09 13:00:38;;;;;;;17.40;6.43;;;20.30;99.90;;;;;;5057668;28;20442;-53
2023/10/09 13:03:19;;;;;;;15.15;6.70;;;20.20;99.90;;;;;;5057396;28;20033;-52
2023/10/09 13:05:56;;;;;;;15.25;6.43;;;20.00;99.90;;;;;;5056111;28;20118;-56
2023/10/09 13:08:23;;;;;;;15.70;6.25;;;19.90;99.90;;;;;;5057391;28;20037;-52
2023/10/09 13:11:00;;;;;;;10.38;6.25;;;19.90;99.90;;;;;;5057161;28;20033;-52
2023/10/09 13:13:39;;;;;;;14.15;6.35;;;20.20;99.90;;;;;;5055910;28;20086;-51
2023/10/09 13:16:13;;;;;;;13.00;7.22;;;20.30;99.90;;;;;;5056911;28;20354;-51
2023/10/09 13:18:49;;;;;;;18.58;7.25;;;20.50;99.90;;;;;;5055699;28;20031;-48
2023/10/09 13:21:20;;;;;;;14.23;6.82;;;20.60;99.90;;;;;;5057092;28;20063;-49
2023/10/09 13:23:49;;;;;;;14.38;6.63;;;20.90;99.90;;;;;;5057120;28;20362;-48
2023/10/09 13:26:23;;;;;;;14.27;7.22;;;20.70;99.90;;;;;;5056757;28;20466;-48
2023/10/09 13:28:49;;;;;;;13.52;7.07;;;20.80;99.90;;;;;;5056708;28;20063;-48
2023/10/09 13:31:16;;;;;;;10.52;5.38;;;20.90;99.90;;;;;;5055525;28;20041;-48
2023/10/09 13:33:42;;;;;;;10.68;5.40;;;21.30;99.90;;;;;;5056683;28;20446;-50
2023/10/09 13:36:19;;;;;;;12.20;5.60;;;21.40;99.90;;;;;;5056754;28;20036;-49
2023/10/09 13:38:45;;;;;;;10.80;5.28;;;21.30;99.90;;;;;;5056359;28;20025;-51
2023/10/09 13:41:15;;;;;;;10.30;6.03;;;20.90;99.90;;;;;;5056412;28;20163;-52
2023/10/09 13:43:41;;;;;;;10.45;5.57;;;21.20;99.90;;;;;;5056876;28;20033;-52
2023/10/09 13:46:11;;;;;;;10.68;5.20;;;21.30;99.90;;;;;;5056472;28;20040;-51
2023/10/09 13:48:38;;;;;;;12.68;5.90;;;21.10;99.90;;;;;;5056396;28;20039;-52
2023/10/09 13:51:07;;;;;;;10.77;5.95;;;21.30;99.90;;;;;;5054940;28;20458;-52
2023/10/09 13:53:35;;;;;;;12.77;6.25;;;20.60;99.90;;;;;;5056427;28;20033;-49
2023/10/09 13:56:02;;;;;;;11.32;5.88;;;20.10;99.90;;;;;;5056419;28;20025;-50
2023/10/09 13:58:29;;;;;;;12.50;6.20;;;20.00;99.90;;;;;;5055968;28;20029;-49
2023/10/09 14:00:56;;;;;;;16.38;5.78;;;20.00;99.90;;;;;;5056128;28;20454;-49
2023/10/09 14:03:24;;;;;;;10.68;6.28;;;20.30;99.90;;;;;;5056314;28;20033;-48
2023/10/09 14:05:54;;;;;;;10.27;5.53;;;20.90;99.90;;;;;;5055978;28;20123;-48
2023/10/09 14:08:23;;;;;;;13.73;6.55;;;20.80;99.90;;;;;;5055981;28;20090;-49
2023/10/09 14:10:49;;;;;;;13.98;5.72;;;21.00;99.90;;;;;;5054954;28;20033;-49
2023/10/09 14:13:16;;;;;;;12.93;5.72;;;21.10;99.90;;;;;;5055930;28;20068;-48
2023/10/09 14:15:43;;;;;;;9.57;5.22;;;21.10;99.90;;;;;;5038222;28;20500;-49
2023/10/09 14:18:11;;;;;;;7.82;4.93;;;21.20;99.90;;;;;;5055771;28;20108;-48
2023/10/09 14:20:37;;;;;;;10.90;5.55;;;21.90;99.90;;;;;;5054861;28;20029;-49
2023/10/09 14:23:06;;;;;;;13.32;6.32;;;21.90;99.90;;;;;;5056051;28;20037;-49
2023/10/09 14:25:37;;;;;;;14.03;6.63;;;22.00;99.90;;;;;;5055884;28;20166;-49
2023/10/09 14:28:07;;;;;;;12.90;6.50;;;23.10;99.90;;;;;;5055416;28;20145;-51
2023/10/09 14:30:42;;;;;;;12.93;7.18;;;23.90;99.90;;;;;;5054643;28;20461;-48
2023/10/09 14:33:12;;;;;;;13.60;7.25;;;23.00;99.90;;;;;;5055435;28;20134;-50
2023/10/09 14:35:41;;;;;;;13.32;6.25;;;23.20;99.90;;;;;;5055739;28;20363;-49
2023/10/09 14:38:15;;;;;;;14.27;7.65;;;23.80;99.90;;;;;;5055342;28;20044;-49
2023/10/09 14:40:47;;;;;;;14.93;8.05;;;24.10;99.90;;;;;;5054397;28;20043;-51
2023/10/09 14:43:19;;;;;;;12.05;7.18;;;23.20;99.90;;;;;;5055199;28;20054;-49
2023/10/09 14:45:48;;;;;;;11.05;7.32;;;22.60;99.90;;;;;;5055389;28;20039;-49
2023/10/09 14:48:18;;;;;;;;;;;23.00;99.90;;;;;;5054563;28;20517;-49
2023/10/09 14:50:53;;;;;;;12.45;7.00;;;23.60;99.90;;;;;;5055314;28;19952;-50
2023/10/09 14:53:26;;;;;;;12.40;6.75;;;24.10;99.90;;;;;;5055417;28;20112;-50
2023/10/09 14:55:55;;;;;;;17.05;7.68;;;24.10;99.90;;;;;;5055298;28;20369;-49
2023/10/09 14:58:24;;;;;;;13.70;6.38;;;24.00;99.90;;;;;;5054913;28;20024;-51
2023/10/09 15:00:51;;;;;;;12.07;6.80;;;23.50;99.90;;;;;;5053980;28;20045;-51
2023/10/09 15:03:19;;;;;;;12.38;5.93;;;22.40;99.90;;;;;;5054884;28;20086;-52
2023/10/09 15:05:45;;;;;;;10.30;5.90;;;21.90;99.90;;;;;;5054476;28;20136;-49
2023/10/09 15:08:11;;;;;;;11.38;5.75;;;22.00;99.90;;;;;;5054984;28;20041;-52
2023/10/09 15:10:51;;;;;;;13.10;6.57;;;22.20;99.90;;;;;;5054835;28;20029;-52
2023/10/09 15:13:20;;;;;;;12.30;6.47;;;22.30;99.90;;;;;;5054935;28;20044;-52
2023/10/09 15:15:50;;;;;;;12.43;6.10;;;22.50;99.90;;;;;;5054879;28;20445;-52
2023/10/09 15:18:18;;;;;;;12.95;6.18;;;22.50;99.90;;;;;;5054815;28;20024;-53
2023/10/09 15:20:45;;;;;;;11.73;5.70;;;22.60;99.90;;;;;;5055014;28;20025;-52
2023/10/09 15:23:10;;;;;;;18.40;6.95;;;22.70;99.90;;;;;;5053599;28;20094;-52
2023/10/09 15:25:39;;;;;;;11.70;6.85;;;21.90;99.90;;;;;;5054791;28;20033;-51
2023/10/09 15:28:06;;;;;;;15.77;6.75;;;21.50;99.90;;;;;;5054947;28;20055;-53